createdAt,value
2023-08-15T00:00:02.806Z,101818.97
2023-08-15T00:02:32.119Z,101815.47
2023-08-15T00:05:00.220Z,101822.47
2023-08-15T00:07:28.125Z,101820.06
2023-08-15T00:09:56.205Z,101820.44
2023-08-15T00:12:24.162Z,101811.06
2023-08-15T00:14:52.137Z,101815.66
2023-08-15T00:17:20.170Z,101823.84
2023-08-15T00:19:50.022Z,101817.13
2023-08-15T00:22:18.773Z,101821.06
2023-08-15T00:24:46.784Z,101815.22
2023-08-15T00:27:14.648Z,101822.44
2023-08-15T00:29:42.498Z,101812.22
2023-08-15T00:32:10.452Z,101816.78
2023-08-15T00:34:38.373Z,101818.13
2023-08-15T00:37:07.696Z,101818.25
2023-08-15T00:39:35.608Z,101822.91
2023-08-15T00:42:03.562Z,101814.63
2023-08-15T00:44:31.493Z,101823.03
2023-08-15T00:46:59.691Z,101809.34
2023-08-15T00:49:27.704Z,101809.81
2023-08-15T00:51:55.742Z,101814.16
2023-08-15T00:54:25.136Z,101824.00
2023-08-15T00:56:53.188Z,101819.81
2023-08-15T00:59:21.939Z,101826.16
2023-08-15T01:01:50.492Z,101816.69
2023-08-15T01:04:18.927Z,101817.75
2023-08-15T01:06:46.875Z,101825.69
2023-08-15T01:09:14.777Z,101828.56
2023-08-15T01:11:53.290Z,101825.19
2023-08-15T01:14:24.338Z,101826.19
2023-08-15T01:16:54.489Z,101824.59
2023-08-15T01:19:32.139Z,101821.38
2023-08-15T01:22:01.928Z,101824.25
2023-08-15T01:24:32.183Z,101819.19
2023-08-15T01:27:00.181Z,101825.41
2023-08-15T01:29:28.161Z,101829.03
2023-08-15T01:32:03.649Z,101823.88
2023-08-15T01:34:36.232Z,101825.78
2023-08-15T01:37:09.355Z,101825.78
2023-08-15T01:39:40.757Z,101828.41
2023-08-15T01:42:10.265Z,101833.59
2023-08-15T01:44:39.242Z,101837.19
2023-08-15T01:47:07.414Z,101843.22
2023-08-15T01:49:35.358Z,101841.38
2023-08-15T01:52:03.466Z,101838.63
2023-08-15T01:54:31.812Z,101848.25
2023-08-15T01:57:01.078Z,101842.00
2023-08-15T01:59:29.110Z,101843.69
2023-08-15T02:01:57.090Z,101839.47
2023-08-15T02:04:25.125Z,101848.03
2023-08-15T02:06:53.120Z,101855.84
2023-08-15T02:09:21.070Z,101851.13
2023-08-15T02:11:49.039Z,101860.75
2023-08-15T02:14:18.393Z,101857.38
2023-08-15T02:16:46.398Z,101862.44
2023-08-15T02:19:17.300Z,101861.47
2023-08-15T02:21:45.269Z,101857.88
2023-08-15T02:24:13.163Z,101856.06
2023-08-15T02:26:41.122Z,101864.72
2023-08-15T02:29:09.083Z,101854.03
2023-08-15T02:31:45.268Z,101847.66
2023-08-15T02:34:13.122Z,101849.25
2023-08-15T02:36:41.056Z,101848.28
2023-08-15T02:39:09.229Z,101847.41
2023-08-15T02:41:37.196Z,101851.75
2023-08-15T02:44:05.395Z,101845.50
2023-08-15T02:46:33.388Z,101849.00
2023-08-15T02:49:02.688Z,101850.69
2023-08-15T02:51:30.686Z,101857.50
2023-08-15T02:53:58.617Z,101847.69
2023-08-15T02:56:26.684Z,101849.47
2023-08-15T02:58:55.393Z,101853.81
2023-08-15T03:01:24.502Z,101852.09
2023-08-15T03:03:52.449Z,101858.25
2023-08-15T03:06:21.717Z,101854.75
2023-08-15T03:08:49.680Z,101850.44
2023-08-15T03:11:17.735Z,101849.47
2023-08-15T03:13:45.798Z,101857.28
2023-08-15T03:16:14.092Z,101848.53
2023-08-15T03:18:42.050Z,101854.75
2023-08-15T03:21:10.380Z,101854.88
2023-08-15T03:23:40.147Z,101863.16
2023-08-15T03:26:08.597Z,101847.53
2023-08-15T03:28:37.457Z,101858.22
2023-08-15T03:31:07.061Z,101854.78
2023-08-15T03:33:35.460Z,101860.28
2023-08-15T03:36:03.880Z,101864.00
2023-08-15T03:38:31.797Z,101861.59
2023-08-15T03:41:04.994Z,101863.53
2023-08-15T03:43:32.991Z,101863.41
2023-08-15T03:46:02.921Z,101864.22
2023-08-15T03:48:32.173Z,101862.44
2023-08-15T03:51:01.330Z,101862.56
2023-08-15T03:53:29.476Z,101862.44
2023-08-15T03:55:57.683Z,101859.69
2023-08-15T03:58:26.927Z,101856.69
2023-08-15T04:00:54.839Z,101857.41
2023-08-15T04:03:22.773Z,101853.78
2023-08-15T04:05:51.860Z,101864.25
2023-08-15T04:08:19.892Z,101873.72
2023-08-15T04:10:48.205Z,101869.19
2023-08-15T04:13:16.800Z,101860.28
2023-08-15T04:15:46.162Z,101852.97
2023-08-15T04:18:14.293Z,101866.91
2023-08-15T04:20:43.709Z,101862.44
2023-08-15T04:23:12.383Z,101863.19
2023-08-15T04:25:41.530Z,101863.06
2023-08-15T04:28:09.560Z,101856.91
2023-08-15T04:30:37.714Z,101860.28
2023-08-15T04:33:07.368Z,101863.63
2023-08-15T04:35:35.364Z,101854.66
2023-08-15T04:38:03.338Z,101854.53
2023-08-15T04:40:33.159Z,101858.59
2023-08-15T04:43:01.140Z,101854.97
2023-08-15T04:45:29.449Z,101843.50
2023-08-15T04:47:57.454Z,101844.31
2023-08-15T04:50:27.050Z,101840.72
2023-08-15T04:52:55.155Z,101839.63
2023-08-15T04:55:23.334Z,101840.13
2023-08-15T04:57:51.222Z,101850.34
2023-08-15T05:00:20.606Z,101855.38
2023-08-15T05:02:49.059Z,101853.31
2023-08-15T05:05:17.530Z,101853.19
2023-08-15T05:07:46.954Z,101851.16
2023-08-15T05:10:15.016Z,101852.69
2023-08-15T05:12:42.896Z,101857.88
2023-08-15T05:15:11.166Z,101854.97
2023-08-15T05:17:39.188Z,101859.22
2023-08-15T05:20:09.014Z,101862.44
2023-08-15T05:22:36.990Z,101855.22
2023-08-15T05:25:06.950Z,101854.97
2023-08-15T05:27:34.926Z,101852.91
2023-08-15T05:30:02.947Z,101852.53
2023-08-15T05:32:31.005Z,101845.19
2023-08-15T05:34:58.970Z,101849.25
2023-08-15T05:37:26.935Z,101841.06
2023-08-15T05:39:54.869Z,101840.00
2023-08-15T05:42:24.408Z,101840.56
2023-08-15T05:44:52.302Z,101837.66
2023-08-15T05:47:22.017Z,101846.34
2023-08-15T05:49:50.224Z,101847.88
2023-08-15T05:52:18.122Z,101854.63
2023-08-15T05:54:46.358Z,101855.06
2023-08-15T05:57:14.354Z,101855.53
2023-08-15T05:59:43.792Z,101849.72
2023-08-15T06:02:12.642Z,101858.16
2023-08-15T06:04:40.873Z,101859.47
2023-08-15T06:07:08.874Z,101871.34
2023-08-15T06:09:37.230Z,101861.78
2023-08-15T06:12:05.942Z,101864.38
2023-08-15T06:14:33.984Z,101865.00
2023-08-15T06:17:03.526Z,101863.59
2023-08-15T06:19:31.480Z,101858.50
2023-08-15T06:21:59.506Z,101866.19
2023-08-15T06:24:27.605Z,101869.28
2023-08-15T06:26:55.456Z,101865.25
2023-08-15T06:29:23.588Z,101868.53
2023-08-15T06:31:51.669Z,101869.22
2023-08-15T06:34:20.936Z,101868.81
2023-08-15T06:36:48.859Z,101864.94
2023-08-15T06:39:16.828Z,101869.13
2023-08-15T06:41:44.796Z,101870.53
2023-08-15T06:44:12.714Z,101870.25
2023-08-15T06:46:40.658Z,101874.47
2023-08-15T06:49:08.635Z,101871.69
2023-08-15T06:51:38.048Z,101872.25
2023-08-15T06:54:06.541Z,101870.03
2023-08-15T06:56:34.472Z,101862.50
2023-08-15T06:59:02.418Z,101864.72
2023-08-15T07:01:30.814Z,101866.03
2023-08-15T07:03:58.994Z,101880.28
2023-08-15T07:06:26.949Z,101878.88
2023-08-15T07:08:56.985Z,101872.06
2023-08-15T07:11:25.412Z,101874.84
2023-08-15T07:13:53.360Z,101872.50
2023-08-15T07:16:23.008Z,101869.19
2023-08-15T07:21:24.360Z,101878.56
2023-08-15T07:23:52.587Z,101883.03
2023-08-15T07:26:21.949Z,101872.50
2023-08-15T07:28:49.862Z,101869.00
2023-08-15T07:31:17.974Z,101865.78
2023-08-15T07:33:46.137Z,101866.75
2023-08-15T07:36:14.115Z,101875.13
2023-08-15T07:38:41.987Z,101870.66
2023-08-15T07:41:09.975Z,101871.19
2023-08-15T07:43:39.383Z,101870.63
2023-08-15T07:46:07.339Z,101864.25
2023-08-15T07:48:35.403Z,101862.72
2023-08-15T07:51:03.368Z,101859.69
2023-08-15T07:53:31.425Z,101862.75
2023-08-15T07:55:59.574Z,101866.50
2023-08-15T07:58:27.555Z,101862.91
2023-08-15T08:00:57.057Z,101862.75
2023-08-15T08:03:25.103Z,101855.25
2023-08-15T08:05:53.057Z,101853.22
2023-08-15T08:08:21.022Z,101849.63
2023-08-15T08:10:49.076Z,101854.13
2023-08-15T08:13:20.433Z,101858.78
2023-08-15T08:15:48.660Z,101855.59
2023-08-15T08:18:18.234Z,101857.63
2023-08-15T08:20:46.626Z,101860.06
2023-08-15T08:23:15.102Z,101850.81
2023-08-15T08:25:43.269Z,101867.66
2023-08-15T08:28:11.374Z,101862.72
2023-08-15T08:30:39.398Z,101871.72
2023-08-15T08:33:07.538Z,101865.06
2023-08-15T08:35:36.854Z,101871.31
2023-08-15T08:38:05.077Z,101865.56
2023-08-15T08:40:33.140Z,101869.72
2023-08-15T08:43:01.210Z,101863.72
2023-08-15T08:45:32.106Z,101868.06
2023-08-15T08:48:00.615Z,101877.88
2023-08-15T08:50:30.364Z,101878.25
2023-08-15T08:52:59.705Z,101872.94
2023-08-15T08:55:29.690Z,101866.91
2023-08-15T08:58:00.985Z,101874.75
2023-08-15T09:00:32.943Z,101869.63
2023-08-15T09:03:01.160Z,101860.78
2023-08-15T09:05:29.772Z,101856.34
2023-08-15T09:08:00.036Z,101855.53
2023-08-15T09:10:28.118Z,101855.38
2023-08-15T09:13:00.555Z,101854.38
2023-08-15T09:15:30.117Z,101861.44
2023-08-15T09:18:01.788Z,101869.84
2023-08-15T09:20:30.024Z,101864.03
2023-08-15T09:23:01.029Z,101855.88
2023-08-15T09:25:31.143Z,101848.22
2023-08-15T09:27:59.113Z,101845.38
2023-08-15T09:30:27.315Z,101849.59
2023-08-15T09:32:55.284Z,101839.09
2023-08-15T09:35:23.273Z,101831.91
2023-08-15T09:37:53.156Z,101828.09
2023-08-15T09:40:25.524Z,101822.25
2023-08-15T09:42:54.158Z,101821.88
2023-08-15T09:45:23.172Z,101817.88
2023-08-15T09:47:51.214Z,101807.22
2023-08-15T09:50:19.289Z,101809.22
2023-08-15T09:52:52.587Z,101815.56
2023-08-15T09:55:22.588Z,101817.59
2023-08-15T09:57:52.212Z,101802.72
2023-08-15T10:00:21.542Z,101804.69
2023-08-15T10:02:56.045Z,101801.56
2023-08-15T10:05:26.503Z,101791.22
2023-08-15T10:07:54.344Z,101796.72
2023-08-15T10:10:23.936Z,101795.53
2023-08-15T10:12:53.035Z,101789.34
2023-08-15T10:15:23.311Z,101787.19
2023-08-15T10:17:51.920Z,101788.00
2023-08-15T10:20:23.433Z,101789.03
2023-08-15T10:22:52.956Z,101782.19
2023-08-15T10:25:34.977Z,101781.84
2023-08-15T10:28:06.827Z,101780.84
2023-08-15T10:30:37.447Z,101781.84
2023-08-15T10:33:16.897Z,101781.31
2023-08-15T10:35:51.669Z,101782.84
2023-08-15T10:38:22.060Z,101775.81
2023-08-15T10:40:53.746Z,101756.59
2023-08-15T10:43:26.142Z,101749.88
2023-08-15T10:45:54.666Z,101744.81
2023-08-15T10:48:47.097Z,101736.13
2023-08-15T10:51:20.755Z,101741.13
2023-08-15T10:53:49.756Z,101741.47
2023-08-15T10:56:22.916Z,101740.84
2023-08-15T10:58:51.732Z,101735.66
2023-08-15T11:01:20.350Z,101733.66
2023-08-15T11:03:49.606Z,101736.50
2023-08-15T11:06:17.977Z,101729.97
2023-08-15T11:08:48.393Z,101729.13
2023-08-15T11:11:16.324Z,101730.59
2023-08-15T11:13:47.443Z,101733.03
2023-08-15T11:16:17.486Z,101738.41
2023-08-15T11:18:46.421Z,101727.56
2023-08-15T11:21:15.726Z,101727.38
2023-08-15T11:23:44.337Z,101736.72
2023-08-15T11:26:15.413Z,101738.25
2023-08-15T11:28:44.994Z,101732.22
2023-08-15T11:33:46.132Z,101724.16
2023-08-15T11:36:14.128Z,101724.16
2023-08-15T11:38:42.052Z,101718.81
2023-08-15T11:41:10.142Z,101704.13
2023-08-15T11:43:38.141Z,101695.06
2023-08-15T11:46:08.097Z,101694.59
2023-08-15T11:48:36.802Z,101690.53
2023-08-15T11:51:06.750Z,101690.25
2023-08-15T11:53:34.869Z,101691.13
2023-08-15T11:56:02.810Z,101672.59
2023-08-15T11:58:31.570Z,101679.13
2023-08-15T12:01:03.217Z,101678.28
2023-08-15T12:03:33.276Z,101668.06
2023-08-15T12:06:02.783Z,101665.72
2023-08-15T12:08:31.728Z,101663.69
2023-08-15T12:11:01.834Z,101646.47
2023-08-15T12:13:33.488Z,101638.91
2023-08-15T12:16:02.968Z,101646.09
2023-08-15T12:18:33.352Z,101639.13
2023-08-15T12:21:01.747Z,101643.13
2023-08-15T12:23:29.989Z,101652.34
2023-08-15T12:25:58.303Z,101656.34
2023-08-15T12:28:29.439Z,101648.75
2023-08-15T12:30:57.784Z,101633.78
2023-08-15T12:33:40.851Z,101651.94
2023-08-15T12:36:15.758Z,101653.78
2023-08-15T12:38:44.355Z,101643.25
2023-08-15T12:41:14.983Z,101642.19
2023-08-15T12:43:43.568Z,101628.97
2023-08-15T12:46:11.822Z,101624.94
2023-08-15T12:48:39.993Z,101623.63
2023-08-15T12:51:07.869Z,101624.28
2023-08-15T12:53:37.196Z,101619.28
2023-08-15T12:56:06.268Z,101617.59
2023-08-15T12:58:34.295Z,101612.25
2023-08-15T13:01:02.703Z,101601.53
2023-08-15T13:03:31.926Z,101601.06
2023-08-15T13:06:00.180Z,101598.38
2023-08-15T13:08:28.205Z,101590.69
2023-08-15T13:10:58.584Z,101591.03
2023-08-15T13:13:26.819Z,101583.53
2023-08-15T13:15:54.757Z,101576.50
2023-08-15T13:18:23.013Z,101563.97
2023-08-15T13:20:51.017Z,101560.41
2023-08-15T13:23:18.984Z,101566.75
2023-08-15T13:25:47.070Z,101563.00
2023-08-15T13:28:16.333Z,101562.66
2023-08-15T13:30:45.254Z,101559.34
2023-08-15T13:33:13.289Z,101550.81
2023-08-15T13:35:42.121Z,101555.50
2023-08-15T13:38:10.777Z,101546.34
2023-08-15T13:40:38.856Z,101552.03
2023-08-15T13:43:07.104Z,101557.72
2023-08-15T13:45:36.457Z,101560.94
2023-08-15T13:48:04.875Z,101554.09
2023-08-15T13:50:32.857Z,101545.75
2023-08-15T13:53:00.712Z,101549.81
2023-08-15T13:55:28.663Z,101552.16
2023-08-15T13:57:56.624Z,101553.72
2023-08-15T14:00:24.740Z,101553.41
2023-08-15T14:02:54.131Z,101553.75
2023-08-15T14:05:22.448Z,101554.78
2023-08-15T14:07:50.343Z,101549.69
2023-08-15T14:10:18.582Z,101560.56
2023-08-15T14:12:46.477Z,101564.59
2023-08-15T14:15:14.358Z,101554.78
2023-08-15T14:17:42.373Z,101556.81
2023-08-15T14:20:12.605Z,101564.84
2023-08-15T14:22:40.653Z,101565.19
2023-08-15T14:25:09.712Z,101564.22
2023-08-15T14:27:37.699Z,101571.72
2023-08-15T14:30:06.806Z,101564.88
2023-08-15T14:32:34.797Z,101551.84
2023-08-15T14:35:02.883Z,101556.03
2023-08-15T14:37:32.347Z,101551.53
2023-08-15T14:40:00.310Z,101545.84
2023-08-15T14:42:28.977Z,101555.03
2023-08-15T14:44:57.068Z,101548.34
2023-08-15T14:47:29.435Z,101534.19
2023-08-15T14:49:57.881Z,101536.00
2023-08-15T14:52:27.248Z,101539.19
2023-08-15T14:54:57.222Z,101532.16
2023-08-15T14:57:25.564Z,101531.66
2023-08-15T14:59:54.252Z,101528.19
2023-08-15T15:02:24.970Z,101526.00
2023-08-15T15:04:53.579Z,101523.50
2023-08-15T15:07:21.473Z,101530.50
2023-08-15T15:09:49.579Z,101526.34
2023-08-15T15:12:19.219Z,101528.81
2023-08-15T15:14:47.114Z,101520.13
2023-08-15T15:17:15.006Z,101514.31
2023-08-15T15:19:42.941Z,101505.97
2023-08-15T15:22:10.985Z,101512.63
2023-08-15T15:24:38.936Z,101510.47
2023-08-15T15:27:07.194Z,101517.94
2023-08-15T15:29:36.720Z,101511.28
2023-08-15T15:32:05.408Z,101509.25
2023-08-15T15:34:33.359Z,101514.06
2023-08-15T15:37:01.252Z,101522.72
2023-08-15T15:39:29.612Z,101519.56
2023-08-15T15:41:57.787Z,101529.53
2023-08-15T15:44:26.212Z,101520.22
2023-08-15T15:46:55.886Z,101523.19
2023-08-15T15:49:24.231Z,101527.16
2023-08-15T15:51:52.252Z,101532.00
2023-08-15T15:54:20.417Z,101546.66
2023-08-15T15:56:48.355Z,101555.97
2023-08-15T15:59:16.264Z,101564.13
2023-08-15T16:01:44.244Z,101566.44
2023-08-15T16:04:13.905Z,101544.91
2023-08-15T16:06:41.933Z,101533.56
2023-08-15T16:09:09.865Z,101551.00
2023-08-15T16:11:37.812Z,101559.13
2023-08-15T16:14:06.175Z,101539.41
2023-08-15T16:16:34.192Z,101532.69
2023-08-15T16:19:02.097Z,101541.91
2023-08-15T16:21:32.641Z,101541.38
2023-08-15T16:24:00.308Z,101549.50
2023-08-15T16:26:28.357Z,101553.28
2023-08-15T16:28:56.402Z,101566.75
2023-08-15T16:31:26.427Z,101564.22
2023-08-15T16:33:54.578Z,101570.16
2023-08-15T16:36:22.477Z,101562.88
2023-08-15T16:38:52.020Z,101564.84
2023-08-15T16:41:20.034Z,101552.38
2023-08-15T16:43:49.266Z,101543.56
2023-08-15T16:46:17.609Z,101535.56
2023-08-15T16:48:46.134Z,101532.09
2023-08-15T16:51:14.523Z,101523.41
2023-08-15T16:53:42.470Z,101518.41
2023-08-15T16:56:11.907Z,101516.22
2023-08-15T16:58:39.782Z,101516.53
2023-08-15T17:01:07.808Z,101513.84
2023-08-15T17:03:35.984Z,101517.53
2023-08-15T17:06:04.144Z,101521.00
2023-08-15T17:08:32.446Z,101522.00
2023-08-15T17:11:00.481Z,101534.16
2023-08-15T17:13:29.833Z,101530.81
2023-08-15T17:15:57.724Z,101538.13
2023-08-15T17:18:25.725Z,101529.28
2023-08-15T17:20:54.438Z,101526.13
2023-08-15T17:23:22.459Z,101535.91
2023-08-15T17:25:50.441Z,101529.75
2023-08-15T17:28:18.485Z,101514.78
2023-08-15T17:30:47.795Z,101512.44
2023-08-15T17:33:15.858Z,101516.41
2023-08-15T17:35:45.354Z,101513.31
2023-08-15T17:38:13.420Z,101521.59
2023-08-15T17:40:41.302Z,101513.13
2023-08-15T17:43:09.713Z,101508.91
2023-08-15T17:45:39.672Z,101493.97
2023-08-15T17:48:09.941Z,101487.59
2023-08-15T17:50:37.776Z,101469.34
2023-08-15T17:53:06.036Z,101478.31
2023-08-15T17:55:34.043Z,101486.28
2023-08-15T17:58:02.016Z,101500.25
2023-08-15T18:00:30.523Z,101509.06
2023-08-15T18:02:58.775Z,101504.75
2023-08-15T18:05:28.463Z,101503.06
2023-08-15T18:07:56.421Z,101515.53
2023-08-15T18:10:24.406Z,101518.19
2023-08-15T18:12:52.426Z,101518.19
2023-08-15T18:15:20.481Z,101514.00
2023-08-15T18:17:49.980Z,101516.00
2023-08-15T18:20:18.128Z,101517.09
2023-08-15T18:22:47.460Z,101519.09
2023-08-15T18:25:15.813Z,101521.06
2023-08-15T18:27:43.706Z,101532.84
2023-08-15T18:30:12.818Z,101540.97
2023-08-15T18:32:41.084Z,101551.91
2023-08-15T18:35:10.090Z,101561.00
2023-08-15T18:37:39.107Z,101561.44
2023-08-15T18:40:10.890Z,101555.88
2023-08-15T18:42:38.833Z,101557.75
2023-08-15T18:45:07.716Z,101551.91
2023-08-15T18:47:35.724Z,101546.03
2023-08-15T18:50:03.867Z,101542.41
2023-08-15T18:52:31.736Z,101530.28
2023-08-15T18:54:59.948Z,101526.78
2023-08-15T18:57:29.574Z,101514.47
2023-08-15T18:59:57.745Z,101515.44
2023-08-15T19:02:25.940Z,101526.91
2023-08-15T19:04:59.155Z,101520.75
2023-08-15T19:07:27.232Z,101523.56
2023-08-15T19:09:55.690Z,101517.56
2023-08-15T19:12:23.864Z,101498.28
2023-08-15T19:14:53.933Z,101482.34
2023-08-15T19:17:21.881Z,101478.03
2023-08-15T19:19:52.763Z,101478.34
2023-08-15T19:22:20.972Z,101483.09
2023-08-15T19:24:49.198Z,101490.38
2023-08-15T19:27:17.279Z,101493.19
2023-08-15T19:29:45.323Z,101482.44
2023-08-15T19:32:14.789Z,101481.72
2023-08-15T19:34:49.227Z,101477.41
2023-08-15T19:37:27.080Z,101460.63
2023-08-15T19:40:03.310Z,101450.16
2023-08-15T19:42:31.314Z,101453.09
2023-08-15T19:44:59.331Z,101441.94
2023-08-15T19:47:28.998Z,101432.59
2023-08-15T19:49:56.938Z,101432.91
2023-08-15T19:52:26.443Z,101423.28
2023-08-15T19:54:54.732Z,101420.22
2023-08-15T19:57:23.123Z,101425.53
2023-08-15T19:59:51.125Z,101430.28
2023-08-15T20:02:21.609Z,101418.44
2023-08-15T20:04:51.709Z,101427.38
2023-08-15T20:07:20.199Z,101423.88
2023-08-15T20:09:59.365Z,101429.34
2023-08-15T20:12:36.174Z,101419.72
2023-08-15T20:15:04.247Z,101402.81
2023-08-15T20:17:32.215Z,101391.38
2023-08-15T20:20:02.182Z,101378.94
2023-08-15T20:22:30.155Z,101389.81
2023-08-15T20:24:58.551Z,101378.25
2023-08-15T20:27:26.530Z,101367.63
2023-08-15T20:29:57.642Z,101369.44
2023-08-15T20:32:26.744Z,101373.91
2023-08-15T20:34:55.118Z,101373.91
2023-08-15T20:37:24.871Z,101373.91
2023-08-15T20:39:52.864Z,101376.41
2023-08-15T20:42:21.255Z,101382.41
2023-08-15T20:44:49.605Z,101381.44
2023-08-15T20:47:17.606Z,101384.94
2023-08-15T20:49:45.502Z,101384.94
2023-08-15T20:52:13.479Z,101376.81
2023-08-15T20:54:42.791Z,101380.47
2023-08-15T20:57:10.716Z,101372.31
2023-08-15T20:59:38.563Z,101376.69
2023-08-15T21:02:06.733Z,101374.97
2023-08-15T21:04:34.756Z,101376.81
2023-08-15T21:07:03.155Z,101374.03
2023-08-15T21:09:31.301Z,101373.88
2023-08-15T21:12:00.797Z,101371.22
2023-08-15T21:14:28.806Z,101380.00
2023-08-15T21:16:56.859Z,101382.66
2023-08-15T21:19:24.729Z,101381.69
2023-08-15T21:21:52.614Z,101385.00
2023-08-15T21:24:20.656Z,101388.50
2023-08-15T21:26:48.552Z,101391.16
2023-08-15T21:29:17.854Z,101388.66
2023-08-15T21:31:45.793Z,101387.50
2023-08-15T21:34:13.937Z,101381.25
2023-08-15T21:36:41.890Z,101375.09
2023-08-15T21:39:09.855Z,101381.53
2023-08-15T21:41:37.912Z,101383.91
2023-08-15T21:44:05.994Z,101375.25
2023-08-15T21:46:35.436Z,101371.59
2023-08-15T21:49:03.465Z,101362.66
2023-08-15T21:51:31.391Z,101366.28
2023-08-15T21:53:59.294Z,101366.28
2023-08-15T21:56:28.996Z,101361.81
2023-08-15T21:58:59.134Z,101364.47
2023-08-15T22:01:27.184Z,101360.97
2023-08-15T22:03:56.626Z,101356.50
2023-08-15T22:06:25.112Z,101362.53
2023-08-15T22:08:53.005Z,101358.16
2023-08-15T22:11:23.098Z,101373.94
2023-08-15T22:13:52.151Z,101367.81
2023-08-15T22:16:20.228Z,101369.50
2023-08-15T22:18:48.172Z,101371.28
2023-08-15T22:21:17.568Z,101372.28
2023-08-15T22:23:46.548Z,101374.94
2023-08-15T22:26:14.759Z,101367.97
2023-08-15T22:28:43.115Z,101370.78
2023-08-15T22:31:11.156Z,101381.38
2023-08-15T22:33:39.196Z,101392.00
2023-08-15T22:36:07.216Z,101401.78
2023-08-15T22:38:36.767Z,101394.66
2023-08-15T22:41:04.697Z,101392.16
2023-08-15T22:43:32.656Z,101386.84
2023-08-15T22:46:00.733Z,101397.47
2023-08-15T22:48:28.678Z,101397.47
2023-08-15T22:50:56.560Z,101393.97
2023-08-15T22:53:24.615Z,101398.44
2023-08-15T22:55:58.945Z,101392.31
2023-08-15T22:58:26.859Z,101397.59
2023-08-15T23:00:56.610Z,101398.44
2023-08-15T23:03:25.821Z,101403.72
2023-08-15T23:05:53.684Z,101405.72
2023-08-15T23:08:21.681Z,101406.53
2023-08-15T23:10:54.827Z,101401.38
2023-08-15T23:13:23.123Z,101407.53
2023-08-15T23:15:51.308Z,101408.53
2023-08-15T23:18:19.396Z,101410.31
2023-08-15T23:20:47.328Z,101419.28
2023-08-15T23:23:15.902Z,101421.09
2023-08-15T23:25:43.773Z,101426.41
2023-08-15T23:28:13.296Z,101432.69
2023-08-15T23:30:41.260Z,101434.50
2023-08-15T23:33:09.622Z,101428.53
2023-08-15T23:35:37.603Z,101432.00
2023-08-15T23:38:05.876Z,101421.53
2023-08-15T23:40:34.109Z,101418.88
2023-08-15T23:43:02.065Z,101418.06
2023-08-15T23:45:32.966Z,101426.16
2023-08-15T23:48:00.966Z,101413.84
2023-08-15T23:50:29.595Z,101415.56
2023-08-15T23:52:57.982Z,101412.34
2023-08-15T23:55:25.891Z,101403.38
2023-08-15T23:57:54.159Z,101404.22
